CheckWX is a tool to help pilots better visualize weather data.  It is not intended as a substitute for an official pre-flight weather briefing.

17:45:01 UTC

KDUJ TAF
Dubois Regional Airport
Dubois, Pennsylvania, USA
KDUJ 181735Z 1818/1918 26005KT P6SM SCT025 TEMPO 1818/1820 BKN015 FM182100 00000KT P6SM OVC035 FM190500 00000KT 4SM BR BKN022 FM190700 00000KT 3SM BR BKN008 FM190900 00000KT 2SM BR BKN004 FM191400 00000KT 5SM BR BKN008

Jun-18@
18:00 UTC

Jun-18 @ 18:00 UTC

Jun-18@
21:00 UTC

Jun-18 @ 21:00 UTC

KDUJ 181735Z 1818/1918 26005KT P6SM SCT025
Wind
  • 260° at 5 KTS
Cloud Levels
  • Scattered at 2,500' AGL

Jun-18@
18:00 UTC

Jun-18 @ 18:00 UTC

Jun-18@
20:00 UTC

Jun-18 @ 20:00 UTC

TEMPO 1818/1820 BKN015

Temporary

Temporary Changes expected for less than half the time period

Cloud Levels
  • Broken at 1,500' AGL

Jun-18@
21:00 UTC

Jun-18 @ 21:00 UTC

Jun-19@
05:00 UTC

Jun-19 @ 05:00 UTC

FM182100 00000KT P6SM OVC035

From

From Standard forecast or significant change

Cloud Levels
  • Overcast at 3,500' AGL

Jun-19@
05:00 UTC

Jun-19 @ 05:00 UTC

Jun-19@
07:00 UTC

Jun-19 @ 07:00 UTC

FM190500 00000KT 4SM BR BKN022

From

From Standard forecast or significant change

Conditions
Mist
Cloud Levels
  • Broken at 2,200' AGL

Jun-19@
07:00 UTC

Jun-19 @ 07:00 UTC

Jun-19@
09:00 UTC

Jun-19 @ 09:00 UTC

FM190700 00000KT 3SM BR BKN008

From

From Standard forecast or significant change

Conditions
Mist
Cloud Levels
  • Broken at 800' AGL

Jun-19@
09:00 UTC

Jun-19 @ 09:00 UTC

Jun-19@
14:00 UTC

Jun-19 @ 14:00 UTC

FM190900 00000KT 2SM BR BKN004

From

From Standard forecast or significant change

Conditions
Mist
Cloud Levels
  • Broken at 400' AGL

Jun-19@
14:00 UTC

Jun-19 @ 14:00 UTC

Jun-19@
18:00 UTC

Jun-19 @ 18:00 UTC

FM191400 00000KT 5SM BR BKN008

From

From Standard forecast or significant change

Conditions
Mist
Cloud Levels
  • Broken at 800' AGL